Time;durP1;ratioP1;P1;durP2;ratioP2;P2;SDS_P1;SDS_P2;PMS_P1;PMS_P2;Temp;Humidity;BMP_temperature;BMP_pressure;BME280_temperature;BME280_humidity;BME280_pressure;Samples;Min_cycle;Max_cycle;Signal;HPM_P1;HPM_P2
2022/09/12 00:04:52;;;;;;;8.70;6.20;;;;;;;10.09;78.13;99612.83;213577;1276;140897;-64
2022/09/12 00:09:55;;;;;;;9.00;5.00;;;;;;;10.06;78.02;99614.02;213057;1276;141227;-66
2022/09/12 00:14:59;;;;;;;8.00;5.70;;;;;;;10.00;78.14;99617.49;213657;1274;141105;-65
2022/09/12 00:20:03;;;;;;;9.00;5.20;;;;;;;9.91;78.13;99618.84;214178;1277;141472;-65
2022/09/12 00:25:07;;;;;;;9.20;4.90;;;;;;;9.84;78.14;99618.14;213318;1277;141459;-65
2022/09/12 00:30:11;;;;;;;8.90;5.00;;;;;;;9.78;78.33;99614.14;214259;1275;140632;-66
2022/09/12 00:35:14;;;;;;;6.90;5.10;;;;;;;9.75;78.41;99617.49;215800;1276;142051;-66
2022/09/12 00:40:17;;;;;;;9.00;5.10;;;;;;;9.72;78.41;99617.05;215231;1277;141121;-65
2022/09/12 00:45:27;;;;;;;8.60;5.80;;;;;;;9.70;78.44;99622.08;215830;1276;140728;-66
2022/09/12 00:50:32;;;;;;;7.00;4.60;;;;;;;9.71;78.52;99618.25;213538;1276;140394;-65
2022/09/12 00:55:42;;;;;;;6.40;4.20;;;;;;;9.72;78.50;99619.97;214230;1276;140865;-65
2022/09/12 01:00:46;;;;;;;6.30;5.00;;;;;;;9.71;78.66;99622.23;214554;1276;142183;-66
2022/09/12 01:06:06;;;;;;;5.60;4.20;;;;;;;9.70;78.74;99621.75;214051;1275;139863;-65
2022/09/12 01:11:11;;;;;;;6.00;4.70;;;;;;;9.67;78.74;99621.84;214034;1276;139709;-65
2022/09/12 01:16:15;;;;;;;4.90;4.40;;;;;;;9.61;78.83;99623.50;213579;1276;139970;-65
2022/09/12 01:21:45;;;;;;;9.00;4.60;;;;;;;9.51;78.69;99621.01;214103;1276;139169;-66
2022/09/12 01:27:26;;;;;;;12.80;6.20;;;;;;;9.44;78.87;99620.81;214001;1276;140286;-68
2022/09/12 01:32:51;;;;;;;13.60;5.80;;;;;;;9.41;78.90;99620.36;213331;1277;140297;-68
2022/09/12 01:38:06;;;;;;;16.20;7.40;;;;;;;9.41;79.16;99617.75;213325;1276;140893;-67
2022/09/12 01:43:16;;;;;;;12.80;5.80;;;;;;;9.39;79.11;99615.85;213785;1274;141443;-67
2022/09/12 01:48:23;;;;;;;9.00;5.00;;;;;;;9.38;79.52;99620.61;213054;1274;140869;-67
2022/09/12 01:53:32;;;;;;;8.00;6.20;;;;;;;9.31;79.43;99618.47;213662;1276;141589;-66
2022/09/12 01:58:55;;;;;;;8.30;6.30;;;;;;;9.26;79.89;99625.26;213101;1275;140761;-66
2022/09/12 02:04:08;;;;;;;10.50;4.60;;;;;;;9.25;79.89;99626.41;213263;1276;141075;-66
2022/09/12 02:09:20;;;;;;;4.50;3.60;;;;;;;9.23;79.92;99627.42;214075;1276;140813;-67
2022/09/12 02:14:29;;;;;;;11.90;6.40;;;;;;;9.23;80.16;99629.64;214367;1276;141807;-67
2022/09/12 02:19:48;;;;;;;5.20;4.20;;;;;;;9.25;80.04;99628.95;215255;1274;139770;-67
2022/09/12 02:24:56;;;;;;;4.70;3.60;;;;;;;9.27;80.14;99628.89;214008;1274;139842;-66
2022/09/12 02:29:59;;;;;;;9.90;5.10;;;;;;;9.25;80.09;99626.18;215301;1274;140267;-69
2022/09/12 02:35:30;;;;;;;8.70;5.20;;;;;;;9.22;79.98;99630.31;216093;1275;141605;-69
2022/09/12 02:40:33;;;;;;;6.90;4.50;;;;;;;9.24;80.05;99625.62;215832;1274;140919;-68
2022/09/12 02:45:37;;;;;;;4.90;4.40;;;;;;;9.23;79.76;99621.08;215729;1276;140084;-67
2022/09/12 02:50:40;;;;;;;5.60;4.20;;;;;;;9.23;80.04;99622.31;215084;1276;139254;-68
2022/09/12 02:55:44;;;;;;;7.20;4.60;;;;;;;9.22;80.30;99626.42;215147;1274;140448;-68
2022/09/12 03:00:50;;;;;;;5.20;4.20;;;;;;;9.17;80.20;99627.70;214614;1276;140880;-66
2022/09/12 03:06:01;;;;;;;5.80;4.40;;;;;;;9.12;80.25;99632.86;213986;1275;140546;-66
2022/09/12 03:11:42;;;;;;;5.70;4.80;;;;;;;9.13;80.42;99636.11;214651;1276;142062;-66
2022/09/12 03:17:02;;;;;;;4.40;4.00;;;;;;;9.14;80.25;99641.34;212826;1276;140710;-65
2022/09/12 03:22:29;;;;;;;4.80;4.30;;;;;;;9.15;80.60;99644.89;213367;1276;140905;-66
2022/09/12 03:27:43;;;;;;;5.40;4.40;;;;;;;9.11;80.55;99643.09;213237;1276;139617;-65
2022/09/12 03:32:49;;;;;;;17.70;4.70;;;;;;;9.06;80.88;99648.33;213168;1276;141203;-66
2022/09/12 03:37:52;;;;;;;5.60;4.10;;;;;;;9.04;80.88;99657.42;213452;1276;152077;-65
2022/09/12 03:42:55;;;;;;;7.70;4.50;;;;;;;9.01;80.57;99662.29;213462;1274;141473;-65
2022/09/12 03:48:00;;;;;;;4.60;4.00;;;;;;;8.98;81.00;99669.33;213781;1275;140133;-66
2022/09/12 03:53:03;;;;;;;7.00;4.60;;;;;;;8.98;81.20;99671.83;213767;1276;140989;-65
2022/09/12 03:58:06;;;;;;;5.90;4.90;;;;;;;9.01;81.31;99668.06;213419;1276;141733;-64
2022/09/12 04:03:09;;;;;;;7.00;4.40;;;;;;;9.01;81.43;99675.54;213364;1275;139285;-66
2022/09/12 04:08:13;;;;;;;5.20;4.70;;;;;;;8.97;81.48;99677.96;214900;1274;139398;-66
2022/09/12 04:13:15;;;;;;;10.90;5.40;;;;;;;8.97;81.45;99683.13;212950;1276;140132;-66
2022/09/12 04:18:17;;;;;;;5.70;4.60;;;;;;;8.97;81.54;99684.56;213320;1275;140442;-66
2022/09/12 04:23:20;;;;;;;6.90;4.80;;;;;;;8.99;81.81;99685.79;215804;1274;141139;-67
2022/09/12 04:28:23;;;;;;;7.40;4.90;;;;;;;9.03;82.00;99689.27;215635;1275;140033;-66
2022/09/12 04:33:26;;;;;;;15.40;5.10;;;;;;;9.09;81.70;99686.69;215949;1275;139644;-66
2022/09/12 04:38:28;;;;;;;7.50;4.60;;;;;;;9.15;81.91;99690.80;215097;1275;141593;-66
2022/09/12 04:43:31;;;;;;;5.80;5.20;;;;;;;9.21;81.98;99694.90;214995;1275;140201;-67
2022/09/12 04:48:34;;;;;;;4.90;3.80;;;;;;;9.26;82.16;99700.95;214262;1276;141795;-66
2022/09/12 04:53:37;;;;;;;7.60;4.70;;;;;;;9.34;81.86;99697.01;214710;1274;140150;-66
2022/09/12 04:58:39;;;;;;;7.60;4.20;;;;;;;9.47;82.05;99703.02;214435;1274;140638;-67
2022/09/12 05:03:43;;;;;;;7.50;4.90;;;;;;;9.68;82.28;99702.01;214576;1274;139967;-66
2022/09/12 05:08:46;;;;;;;6.00;4.50;;;;;;;9.84;82.16;99701.25;213516;1274;141176;-67
2022/09/12 05:13:49;;;;;;;4.60;4.10;;;;;;;9.95;82.14;99704.18;214273;1275;139188;-65
2022/09/12 05:18:52;;;;;;;3.70;3.40;;;;;;;10.05;82.14;99704.79;213623;1274;139753;-65
2022/09/12 05:24:00;;;;;;;6.40;3.90;;;;;;;10.21;82.14;99707.21;213824;1275;140571;-65
2022/09/12 05:29:05;;;;;;;4.90;3.40;;;;;;;10.29;82.02;99704.98;213160;1274;140733;-64
2022/09/12 05:34:08;;;;;;;4.50;4.10;;;;;;;10.33;81.94;99709.88;214650;1274;139852;-68
2022/09/12 05:39:12;;;;;;;5.80;4.40;;;;;;;10.36;81.97;99715.32;213102;1275;140337;-67
2022/09/12 05:44:16;;;;;;;9.30;4.50;;;;;;;10.43;82.06;99715.84;214391;1274;140555;-71
2022/09/12 05:49:20;;;;;;;6.60;4.00;;;;;;;10.46;82.07;99717.92;213371;1274;141006;-70
2022/09/12 05:54:24;;;;;;;3.80;3.50;;;;;;;10.55;82.24;99713.80;213323;1275;141848;-71
2022/09/12 05:59:34;;;;;;;5.50;4.40;;;;;;;10.66;82.22;99715.23;214366;1276;140841;-70
2022/09/12 06:04:42;;;;;;;6.60;4.50;;;;;;;10.77;82.38;99717.77;213888;1274;139991;-66
2022/09/12 06:09:45;;;;;;;6.20;4.50;;;;;;;10.94;82.31;99720.19;214185;1274;140495;-65
2022/09/12 06:14:49;;;;;;;6.60;4.00;;;;;;;11.10;82.08;99721.66;215190;1276;140846;-65
2022/09/12 06:19:55;;;;;;;7.20;3.60;;;;;;;11.31;81.96;99723.55;215003;1274;139772;-65
2022/09/12 06:24:58;;;;;;;5.10;3.60;;;;;;;11.64;82.10;99722.19;215244;1275;140649;-67
2022/09/12 06:30:01;;;;;;;4.70;3.20;;;;;;;11.97;81.85;99721.09;215579;1276;139960;-67
2022/09/12 06:35:04;;;;;;;7.70;2.60;;;;;;;12.35;81.38;99723.20;215727;1274;141243;-68
2022/09/12 06:40:07;;;;;;;7.40;3.40;;;;;;;12.73;80.88;99728.93;215811;1276;139717;-67
2022/09/12 06:45:10;;;;;;;2.70;2.40;;;;;;;13.06;80.76;99727.46;214965;1276;139200;-67
2022/09/12 06:50:13;;;;;;;4.70;3.30;;;;;;;13.35;80.03;99730.23;214136;1276;140748;-67
2022/09/12 06:55:17;;;;;;;3.50;3.20;;;;;;;13.66;79.84;99728.66;214222;1274;140151;-68
2022/09/12 07:00:25;;;;;;;3.90;2.30;;;;;;;13.96;79.28;99729.02;214065;1276;140261;-68
2022/09/12 07:05:29;;;;;;;3.00;2.00;;;;;;;14.29;78.82;99734.20;213052;1276;139548;-69
2022/09/12 07:10:31;;;;;;;3.30;3.10;;;;;;;14.66;78.47;99732.25;213881;1276;140255;-70
2022/09/12 07:15:35;;;;;;;3.70;3.20;;;;;;;15.23;77.69;99734.70;213936;1275;141137;-66
2022/09/12 07:20:38;;;;;;;5.60;2.80;;;;;;;15.50;76.89;99735.95;213088;1274;141108;-69
2022/09/12 07:25:40;;;;;;;2.90;2.50;;;;;;;15.76;76.47;99736.55;213784;1276;139970;-70
2022/09/12 07:30:43;;;;;;;3.60;2.70;;;;;;;16.40;76.51;99742.69;212981;1276;139981;-70
2022/09/12 07:35:46;;;;;;;4.20;2.30;;;;;;;16.81;75.44;99746.84;213946;1276;139542;-69
2022/09/12 07:40:49;;;;;;;5.00;2.90;;;;;;;17.14;74.73;99754.35;213751;1275;141025;-67
2022/09/12 07:45:56;;;;;;;4.60;2.60;;;;;;;17.25;73.66;99761.83;213130;1276;140180;-67
2022/09/12 07:51:00;;;;;;;;;;;;;;;17.36;73.59;99765.53;214189;1274;139989;-68
2022/09/12 07:56:04;;;;;;;2.80;2.60;;;;;;;17.66;73.15;99769.13;214229;1276;126709;-69
2022/09/12 08:01:07;;;;;;;4.20;2.40;;;;;;;17.81;72.31;99767.46;213515;1276;140786;-68
2022/09/12 08:06:16;;;;;;;2.60;2.00;;;;;;;17.86;71.46;99764.09;213937;1275;139917;-72
2022/09/12 08:11:20;;;;;;;1.50;1.40;;;;;;;17.75;70.85;99766.23;215463;1275;139751;-70
2022/09/12 08:16:25;;;;;;;3.50;2.10;;;;;;;17.53;69.79;99767.43;215439;1274;140160;-69
2022/09/12 08:21:30;;;;;;;4.10;2.30;;;;;;;17.49;70.17;99765.88;214448;1274;140340;-68
2022/09/12 08:26:33;;;;;;;5.20;2.40;;;;;;;17.71;70.21;99764.45;213211;1275;140031;-75
2022/09/12 08:31:35;;;;;;;2.30;2.10;;;;;;;17.80;69.58;99767.69;213751;1276;142171;-72
2022/09/12 08:36:37;;;;;;;4.70;1.50;;;;;;;17.83;69.27;99769.24;216094;1274;139521;-69
2022/09/12 08:41:43;;;;;;;2.60;1.90;;;;;;;17.71;68.31;99767.52;214695;1275;140662;-68
2022/09/12 08:47:04;;;;;;;3.00;1.70;;;;;;;17.68;67.94;99774.11;215508;1274;139652;-67
2022/09/12 08:52:14;;;;;;;3.00;1.60;;;;;;;17.66;67.09;99778.19;214169;1276;139775;-70
2022/09/12 08:57:17;;;;;;;2.80;1.60;;;;;;;18.12;66.98;99773.37;214478;1276;140291;-70
2022/09/12 09:02:45;;;;;;;3.60;1.50;;;;;;;18.12;66.08;99778.48;214935;1273;141210;-71
2022/09/12 09:08:03;;;;;;;1.60;1.40;;;;;;;18.28;65.68;99777.60;214399;1275;139917;-66
2022/09/12 09:18:48;;;;;;;3.80;2.20;;;;;;;18.73;64.45;99779.81;213421;1274;140303;-66
2022/09/12 09:23:58;;;;;;;2.60;1.20;;;;;;;19.10;64.20;99776.71;213755;1276;139963;-72
2022/09/12 09:29:40;;;;;;;15.60;2.30;;;;;;;19.23;63.40;99783.84;213027;1276;140229;-66
2022/09/12 09:34:44;;;;;;;2.70;1.80;;;;;;;19.35;62.71;99782.70;214102;1276;141322;-70
2022/09/12 09:40:19;;;;;;;4.50;1.60;;;;;;;19.09;61.95;99783.91;213509;1276;139962;-68
2022/09/12 09:45:26;;;;;;;1.70;1.50;;;;;;;19.13;61.85;99776.45;214520;1274;140638;-71
2022/09/12 09:50:30;;;;;;;4.00;1.70;;;;;;;19.49;61.70;99777.39;213645;1275;139291;-67
2022/09/12 09:55:42;;;;;;;3.40;1.40;;;;;;;19.16;60.76;99775.17;213749;1275;1883969;-67
2022/09/12 10:00:46;;;;;;;1.70;1.60;;;;;;;19.19;60.83;99778.45;214600;1276;140800;-68
2022/09/12 10:05:56;;;;;;;1.20;1.20;;;;;;;19.46;60.55;99780.14;215654;1275;139416;-68
2022/09/12 10:11:00;;;;;;;2.40;1.00;;;;;;;19.47;59.92;99781.30;213798;1276;139746;-67
2022/09/12 10:16:17;;;;;;;3.20;1.40;;;;;;;19.82;60.03;99780.64;215845;1275;139398;-68
2022/09/12 10:21:26;;;;;;;;;;;;;;;20.24;58.87;99788.22;215828;1276;140488;-68
2022/09/12 10:26:37;;;;;;;1.30;1.20;;;;;;;20.03;57.95;99784.95;216145;1276;127044;-68
2022/09/12 10:31:50;;;;;;;1.60;1.40;;;;;;;20.30;57.95;99783.35;214684;1275;139743;-68
2022/09/12 10:36:59;;;;;;;3.40;1.80;;;;;;;20.46;57.16;99780.48;215579;1275;139870;-68
2022/09/12 10:42:04;;;;;;;2.80;1.10;;;;;;;20.53;56.12;99785.73;214996;1274;139641;-68
2022/09/12 10:47:22;;;;;;;2.40;1.30;;;;;;;20.17;56.07;99789.70;214645;1274;139393;-68
2022/09/12 10:52:27;;;;;;;3.50;1.70;;;;;;;20.45;55.75;99789.39;213971;1276;139343;-68
2022/09/12 10:57:50;;;;;;;1.70;1.40;;;;;;;20.69;55.64;99791.08;214263;1275;140233;-68
2022/09/12 11:03:21;;;;;;;1.50;1.40;;;;;;;20.73;55.21;99794.08;214353;1275;140231;-68
2022/09/12 11:08:49;;;;;;;5.50;1.40;;;;;;;20.63;54.95;99796.81;213727;1276;140387;-68
2022/09/12 11:14:18;;;;;;;12.90;1.50;;;;;;;20.73;54.54;99791.38;214334;1276;139866;-67
2022/09/12 11:19:28;;;;;;;1.20;1.20;;;;;;;20.58;53.98;99791.05;213893;1276;141035;-69
2022/09/12 11:24:41;;;;;;;1.90;1.20;;;;;;;20.76;54.34;99786.59;213609;1275;139674;-68
2022/09/12 11:29:48;;;;;;;3.60;1.20;;;;;;;20.98;53.80;99787.08;213303;1276;139743;-68
2022/09/12 11:34:59;;;;;;;1.20;1.00;;;;;;;21.07;53.49;99793.36;214682;1275;139568;-69
2022/09/12 11:40:53;;;;;;;7.60;1.30;;;;;;;21.18;53.10;99791.05;213524;1274;139198;-69
2022/09/12 11:46:08;;;;;;;1.30;1.20;;;;;;;21.06;52.60;99794.63;214024;1276;141098;-67
2022/09/12 11:51:19;;;;;;;1.10;0.90;;;;;;;20.54;52.28;99801.05;213892;1276;159217;-68
2022/09/12 11:56:24;;;;;;;2.40;0.80;;;;;;;20.60;52.67;99796.11;214306;1275;232610;-68
2022/09/12 12:01:40;;;;;;;1.20;1.10;;;;;;;20.75;52.57;99790.32;213593;1275;142585;-68
2022/09/12 12:07:07;;;;;;;0.90;0.90;;;;;;;20.63;52.15;99790.32;214110;1275;141635;-69
2022/09/12 12:12:20;;;;;;;2.00;1.10;;;;;;;20.82;51.98;99790.91;215505;1275;162420;-69
2022/09/12 12:17:25;;;;;;;1.50;1.40;;;;;;;20.45;51.41;99791.55;215828;1275;141129;-69
2022/09/12 12:22:28;;;;;;;4.70;1.20;;;;;;;20.24;51.42;99790.11;216035;1276;140127;-68
2022/09/12 12:27:58;;;;;;;1.60;1.30;;;;;;;20.20;51.58;99790.83;215794;1275;140667;-69
2022/09/12 12:33:14;;;;;;;2.80;1.00;;;;;;;20.19;51.61;99792.21;214947;1276;141002;-68
2022/09/12 12:38:37;;;;;;;1.90;1.30;;;;;;;20.05;51.64;99793.36;213348;1276;140298;-67
2022/09/12 12:43:50;;;;;;;2.00;1.00;;;;;;;19.87;51.32;99792.02;215220;1276;140679;-69
2022/09/12 12:49:21;;;;;;;1.10;1.10;;;;;;;20.08;51.55;99785.40;213615;1276;140457;-68
2022/09/12 12:54:39;;;;;;;1.70;1.40;;;;;;;20.35;51.48;99786.31;213690;1276;140634;-68
2022/09/12 13:00:26;;;;;;;0.80;0.80;;;;;;;20.45;50.69;99783.39;213961;1276;139845;-69
2022/09/12 13:05:47;;;;;;;1.20;0.90;;;;;;;20.52;50.57;99787.59;213424;1275;140138;-68
2022/09/12 13:10:56;;;;;;;1.40;1.20;;;;;;;20.57;50.36;99783.39;213555;1276;139917;-67
2022/09/12 13:16:00;;;;;;;7.10;1.30;;;;;;;20.36;49.98;99793.17;213346;1276;141252;-68
2022/09/12 13:21:21;;;;;;;3.30;0.90;;;;;;;20.27;50.22;99783.89;213747;1275;139709;-68
2022/09/12 13:26:24;;;;;;;4.40;1.50;;;;;;;20.38;50.19;99786.55;213860;1276;139974;-69
2022/09/12 13:31:29;;;;;;;3.40;1.50;;;;;;;20.29;49.86;99783.33;213618;1276;139241;-68
2022/09/12 13:36:49;;;;;;;1.50;1.00;;;;;;;19.89;49.86;99780.95;213975;1276;139708;-68
2022/09/12 13:42:20;;;;;;;1.00;0.80;;;;;;;19.54;50.10;99780.02;214730;1275;140257;-69
2022/09/12 13:47:29;;;;;;;2.80;1.50;;;;;;;19.58;50.34;99769.60;215228;1275;140106;-68
2022/09/12 13:52:35;;;;;;;2.40;1.20;;;;;;;19.60;50.35;99767.98;212936;1275;139147;-68
2022/09/12 13:57:42;;;;;;;1.30;1.10;;;;;;;19.35;50.58;99768.64;214898;1275;139615;-67
2022/09/12 14:02:47;;;;;;;8.60;1.70;;;;;;;19.36;50.51;99773.65;214447;1276;140216;-68
2022/09/12 14:07:57;;;;;;;5.70;1.70;;;;;;;19.41;50.39;99775.00;214316;1276;139839;-66
2022/09/12 14:13:10;;;;;;;1.50;1.20;;;;;;;19.45;50.24;99773.48;215961;1276;139451;-68
2022/09/12 14:18:25;;;;;;;1.20;0.80;;;;;;;19.50;49.88;99773.98;215630;1276;140532;-68
2022/09/12 14:23:31;;;;;;;4.50;1.20;;;;;;;19.55;49.79;99766.57;215797;1276;139743;-68
2022/09/12 14:28:36;;;;;;;1.40;0.90;;;;;;;19.56;49.38;99769.86;214320;1276;139479;-67
2022/09/12 14:33:57;;;;;;;1.90;1.00;;;;;;;19.50;49.14;99769.27;215805;1276;139857;-68
2022/09/12 14:39:06;;;;;;;3.10;1.20;;;;;;;19.46;49.39;99770.27;216054;1275;140832;-68
2022/09/12 14:44:30;;;;;;;1.10;1.10;;;;;;;19.45;49.43;99775.97;215057;1274;140320;-67
2022/09/12 14:49:34;;;;;;;2.30;0.90;;;;;;;19.57;50.05;99769.45;215085;1276;151079;-67
2022/09/12 14:54:39;;;;;;;1.80;1.20;;;;;;;19.69;50.07;99766.28;215596;1276;140636;-67
2022/09/12 14:59:41;;;;;;;4.90;1.70;;;;;;;19.60;49.71;99767.88;214221;1275;140862;-66
2022/09/12 15:04:46;;;;;;;2.40;0.80;;;;;;;19.43;49.28;99774.01;214360;1274;142487;-68
2022/09/12 15:09:49;;;;;;;1.30;1.20;;;;;;;19.13;49.08;99774.20;213956;1274;154301;-68
2022/09/12 15:14:51;;;;;;;1.70;1.10;;;;;;;18.92;49.53;99773.70;213970;1275;140618;-65
2022/09/12 15:19:53;;;;;;;1.20;1.10;;;;;;;18.67;49.93;99769.88;213355;1274;140637;-67
2022/09/12 15:24:56;;;;;;;1.10;1.10;;;;;;;18.52;50.15;99762.46;213700;1274;141155;-67
2022/09/12 15:30:00;;;;;;;1.30;1.20;;;;;;;18.42;50.56;99760.11;213342;1275;140983;-67
2022/09/12 15:35:03;;;;;;;1.50;0.90;;;;;;;18.32;50.69;99754.73;213847;1276;140326;-67
2022/09/12 15:40:06;;;;;;;1.40;1.30;;;;;;;18.26;50.90;99755.87;213272;1275;141232;-67
2022/09/12 15:45:17;;;;;;;1.60;1.40;;;;;;;18.17;50.88;99755.52;214566;1274;140139;-67
2022/09/12 15:50:19;;;;;;;1.40;1.30;;;;;;;18.07;51.11;99758.57;214151;1274;140105;-67
2022/09/12 15:55:31;;;;;;;2.10;1.30;;;;;;;17.96;51.17;99760.62;213545;1275;139932;-67
2022/09/12 16:00:33;;;;;;;2.50;1.10;;;;;;;17.83;51.39;99760.27;214985;1274;140380;-68
2022/09/12 16:05:37;;;;;;;5.60;1.30;;;;;;;17.72;51.68;99760.05;213724;1275;140642;-66
2022/09/12 16:10:42;;;;;;;3.60;1.70;;;;;;;17.57;51.90;99763.19;214439;1276;140601;-66
2022/09/12 16:15:43;;;;;;;1.50;1.30;;;;;;;17.40;52.17;99769.02;215046;1277;140311;-67
2022/09/12 16:20:46;;;;;;;2.00;1.50;;;;;;;17.19;52.60;99777.59;216032;1274;140580;-67
2022/09/12 16:25:59;;;;;;;1.40;1.30;;;;;;;16.97;52.86;99770.27;214530;1274;139877;-67
2022/09/12 16:31:04;;;;;;;2.20;1.90;;;;;;;16.78;53.74;99779.54;216043;1274;139773;-68
2022/09/12 16:36:09;;;;;;;1.30;1.20;;;;;;;16.56;54.59;99773.92;214034;1276;139606;-66
2022/09/12 16:41:12;;;;;;;1.50;1.30;;;;;;;16.32;55.21;99775.63;214322;1274;139735;-66
2022/09/12 16:46:18;;;;;;;3.10;1.80;;;;;;;16.06;55.90;99774.74;214127;1276;139466;-67
2022/09/12 16:51:24;;;;;;;1.20;1.20;;;;;;;15.80;56.93;99772.91;213245;1275;139811;-66
2022/09/12 16:56:27;;;;;;;3.70;1.40;;;;;;;15.49;57.58;99774.46;214896;1274;139452;-67
2022/09/12 17:01:30;;;;;;;4.60;1.70;;;;;;;15.18;58.29;99766.48;214271;1274;140371;-66
2022/09/12 17:06:33;;;;;;;1.50;1.40;;;;;;;14.88;58.69;99767.87;213387;1277;139375;-68
2022/09/12 17:11:38;;;;;;;1.30;1.30;;;;;;;14.62;59.25;99763.50;213534;1274;140732;-66
2022/09/12 17:16:44;;;;;;;5.40;1.80;;;;;;;14.36;59.82;99766.28;213028;1274;139704;-67
2022/09/12 17:21:53;;;;;;;1.50;1.40;;;;;;;14.16;60.20;99765.27;213643;1276;140425;-66
2022/09/12 17:26:56;;;;;;;2.60;1.20;;;;;;;13.91;60.84;99770.44;213723;1275;151091;-66
2022/09/12 17:31:58;;;;;;;1.10;1.10;;;;;;;13.49;61.01;99780.61;214070;1275;140310;-68
2022/09/12 17:37:00;;;;;;;3.60;1.40;;;;;;;13.10;61.86;99783.86;213190;1274;140715;-66
2022/09/12 17:42:06;;;;;;;2.10;1.40;;;;;;;12.79;62.55;99784.80;214443;1275;140928;-66
2022/09/12 17:47:10;;;;;;;1.30;1.30;;;;;;;12.64;63.26;99786.15;213261;1274;140421;-67
2022/09/12 17:52:12;;;;;;;3.70;1.90;;;;;;;12.56;63.49;99791.88;215182;1276;140921;-67
2022/09/12 17:57:15;;;;;;;1.40;1.30;;;;;;;12.36;63.64;99787.05;213844;1275;141948;-66
2022/09/12 18:02:17;;;;;;;3.10;2.00;;;;;;;12.07;64.12;99786.96;214275;1274;141160;-66
2022/09/12 18:07:19;;;;;;;4.20;3.80;;;;;;;11.81;64.70;99790.13;214483;1274;140427;-66
2022/09/12 18:12:21;;;;;;;1.70;1.40;;;;;;;11.66;65.42;99792.98;216149;1274;140388;-67
2022/09/12 18:17:24;;;;;;;2.80;2.10;;;;;;;11.57;65.60;99792.20;216000;1275;141516;-66
2022/09/12 18:22:27;;;;;;;2.40;2.10;;;;;;;11.49;66.18;99793.01;215774;1275;141189;-67
2022/09/12 18:27:31;;;;;;;3.90;2.30;;;;;;;11.40;66.29;99794.55;215822;1274;140913;-66
2022/09/12 18:32:35;;;;;;;5.80;2.80;;;;;;;11.28;66.47;99794.63;215038;1273;140350;-66
2022/09/12 18:37:40;;;;;;;2.30;1.90;;;;;;;11.11;66.81;99789.50;214646;1275;140884;-67
2022/09/12 18:42:44;;;;;;;4.60;2.30;;;;;;;10.93;67.00;99789.95;214370;1274;140303;-66
2022/09/12 18:47:47;;;;;;;5.60;2.50;;;;;;;10.75;67.21;99785.17;214085;1275;154620;-66
2022/09/12 18:52:54;;;;;;;3.00;2.40;;;;;;;10.59;67.51;99783.06;213983;1274;141569;-66
2022/09/12 18:58:02;;;;;;;3.60;2.60;;;;;;;10.47;68.13;99782.38;213679;1276;141587;-67
2022/09/12 19:03:07;;;;;;;3.20;2.70;;;;;;;10.45;68.67;99784.42;214169;1276;141213;-66
2022/09/12 19:08:12;;;;;;;2.60;2.40;;;;;;;10.39;68.71;99781.69;213432;1276;140101;-67
2022/09/12 19:13:16;;;;;;;5.40;3.60;;;;;;;10.26;68.70;99784.36;214619;1276;140967;-66
2022/09/12 19:18:19;;;;;;;3.40;2.90;;;;;;;10.17;68.92;99784.23;213332;1276;140257;-65
2022/09/12 19:23:23;;;;;;;4.00;3.30;;;;;;;10.03;69.20;99782.38;214579;1275;139311;-66
2022/09/12 19:28:28;;;;;;;4.80;3.40;;;;;;;9.98;69.57;99789.22;214202;1276;139739;-65
2022/09/12 19:33:33;;;;;;;4.60;3.70;;;;;;;9.93;69.76;99783.97;213855;1276;140685;-66
2022/09/12 19:38:36;;;;;;;4.40;3.10;;;;;;;9.85;69.92;99784.94;214473;1275;139347;-66
2022/09/12 19:43:40;;;;;;;8.70;3.70;;;;;;;9.76;70.24;99780.73;214321;1275;140518;-67
2022/09/12 19:48:45;;;;;;;3.60;3.30;;;;;;;9.71;70.61;99777.23;215406;1276;142805;-67
2022/09/12 19:53:49;;;;;;;4.10;3.00;;;;;;;9.70;70.81;99771.82;216045;1275;139434;-67
2022/09/12 19:58:52;;;;;;;5.70;3.90;;;;;;;9.60;70.67;99769.73;214989;1276;141022;-65
2022/09/12 20:03:58;;;;;;;4.90;4.10;;;;;;;9.48;70.85;99774.48;215066;1274;140303;-67
2022/09/12 20:09:00;;;;;;;6.80;4.10;;;;;;;9.36;71.05;99767.41;214084;1275;139061;-64
2022/09/12 20:14:03;;;;;;;10.90;5.20;;;;;;;9.25;71.14;99766.52;215987;1276;139865;-66
2022/09/12 20:19:07;;;;;;;6.40;5.50;;;;;;;9.30;71.61;99765.48;213932;1276;139926;-66
2022/09/12 20:24:12;;;;;;;6.70;5.10;;;;;;;9.33;71.52;99764.67;213985;1274;139971;-64
2022/09/12 20:29:15;;;;;;;7.20;5.40;;;;;;;9.30;71.68;99762.34;215279;1274;139755;-63
2022/09/12 20:34:20;;;;;;;6.30;5.20;;;;;;;9.26;71.88;99762.14;215442;1275;139599;-65
2022/09/12 20:39:23;;;;;;;16.70;6.30;;;;;;;9.24;71.77;99766.50;214847;1274;139470;-64
2022/09/12 20:44:26;;;;;;;7.40;5.40;;;;;;;9.17;71.63;99768.11;213349;1274;140718;-63
2022/09/12 20:49:28;;;;;;;7.50;5.40;;;;;;;9.07;72.06;99768.98;214570;1276;140737;-65
2022/09/12 20:54:31;;;;;;;11.70;7.00;;;;;;;8.96;72.21;99772.48;214337;1276;140296;-65
2022/09/12 20:59:34;;;;;;;9.10;5.40;;;;;;;8.87;72.32;99769.05;214197;1276;139960;-66
2022/09/12 21:04:36;;;;;;;10.10;7.10;;;;;;;8.87;72.73;99766.52;214078;1276;141351;-66
2022/09/12 21:09:40;;;;;;;11.20;6.90;;;;;;;8.87;72.71;99768.08;214262;1276;141442;-64
2022/09/12 21:14:44;;;;;;;8.00;6.30;;;;;;;8.85;72.94;99766.33;214144;1276;139653;-65
2022/09/12 21:19:47;;;;;;;12.80;5.50;;;;;;;8.75;72.75;99759.44;214425;1276;140908;-66
2022/09/12 21:24:50;;;;;;;11.10;7.20;;;;;;;8.62;73.05;99757.31;213812;1275;139954;-65
2022/09/12 21:29:54;;;;;;;9.20;5.70;;;;;;;8.55;73.17;99756.30;213298;1276;141406;-65
2022/09/12 21:34:56;;;;;;;8.00;5.90;;;;;;;8.49;73.41;99752.89;214680;1274;140333;-64
2022/09/12 21:40:00;;;;;;;6.60;5.80;;;;;;;8.43;73.57;99752.09;212914;1276;141245;-64
2022/09/12 21:45:03;;;;;;;8.20;6.20;;;;;;;8.43;73.43;99748.37;213923;1276;140093;-65
2022/09/12 21:50:07;;;;;;;8.10;5.90;;;;;;;8.33;73.86;99743.95;214237;1274;140063;-66
2022/09/12 21:55:11;;;;;;;10.30;6.80;;;;;;;8.22;73.83;99747.70;212843;1276;1913313;-62
2022/09/12 22:00:17;;;;;;;16.00;7.30;;;;;;;8.20;74.11;99740.78;213389;1275;141689;-66
2022/09/12 22:05:23;;;;;;;10.30;7.80;;;;;;;8.18;73.80;99741.36;213791;1274;139830;-65
2022/09/12 22:10:28;;;;;;;10.90;7.20;;;;;;;8.09;73.81;99742.34;214629;1274;140850;-65
2022/09/12 22:15:31;;;;;;;13.00;8.40;;;;;;;8.04;74.04;99738.74;215649;1274;141671;-66
2022/09/12 22:20:44;;;;;;;9.80;6.40;;;;;;;7.95;74.17;99734.54;215070;1274;140012;-65
2022/09/12 22:25:48;;;;;;;7.60;4.30;;;;;;;7.88;74.13;99731.84;216149;1274;139632;-65
2022/09/12 22:30:53;;;;;;;8.50;6.40;;;;;;;7.83;74.23;99726.89;215796;1274;139704;-65
2022/09/12 22:35:56;;;;;;;8.80;6.10;;;;;;;7.73;74.35;99733.29;214775;1276;140476;-65
2022/09/12 22:41:03;;;;;;;8.90;6.10;;;;;;;7.74;74.46;99726.50;215503;1276;140411;-66
2022/09/12 22:46:07;;;;;;;7.30;6.20;;;;;;;7.80;74.26;99736.59;213887;1276;142291;-62
2022/09/12 22:51:10;;;;;;;10.20;5.50;;;;;;;7.79;74.26;99735.86;213627;1276;140303;-64
2022/09/12 22:56:14;;;;;;;11.30;5.50;;;;;;;7.69;74.54;99732.86;213795;1276;141526;-65
2022/09/12 23:01:17;;;;;;;7.90;5.30;;;;;;;7.59;75.08;99733.00;214171;1276;140404;-65
2022/09/12 23:06:21;;;;;;;12.50;8.70;;;;;;;7.54;74.93;99731.04;213298;1276;141237;-63
2022/09/12 23:11:24;;;;;;;8.10;7.20;;;;;;;7.50;74.98;99732.12;213723;1276;142494;-63
2022/09/12 23:16:29;;;;;;;11.40;7.30;;;;;;;7.43;74.90;99726.94;213270;1276;140764;-63
2022/09/12 23:21:33;;;;;;;8.10;6.10;;;;;;;7.34;75.05;99717.58;213753;1276;142514;-64
2022/09/12 23:26:35;;;;;;;7.70;5.10;;;;;;;7.27;75.42;99717.88;213679;1276;140304;-63
2022/09/12 23:31:39;;;;;;;8.00;6.00;;;;;;;7.19;75.29;99713.48;213276;1276;140473;-64
2022/09/12 23:36:42;;;;;;;6.80;5.60;;;;;;;7.12;75.90;99706.86;213804;1276;140150;-65
2022/09/12 23:41:45;;;;;;;38.50;8.40;;;;;;;7.05;75.24;99701.52;213693;1276;141467;-65
2022/09/12 23:46:48;;;;;;;7.30;6.00;;;;;;;7.00;75.32;99694.84;213741;1276;140847;-64